Time;durP1;ratioP1;P1;durP2;ratioP2;P2;SDS_P1;SDS_P2;PMS_P1;PMS_P2;Temp;Humidity;BMP_temperature;BMP_pressure;BME280_temperature;BME280_humidity;BME280_pressure;Samples;Min_cycle;Max_cycle;Signal;HPM_P1;HPM_P2
2024/01/10 00:02:07;;;;;;;6.53;4.75;;;18.90;29.90;;;;;;5013139;28;20303;-59
2024/01/10 00:04:34;;;;;;;6.70;4.78;;;18.90;29.70;;;;;;5012497;28;20276;-59
2024/01/10 00:07:02;;;;;;;6.43;4.68;;;18.90;29.90;;;;;;5012779;28;20277;-59
2024/01/10 00:09:29;;;;;;;7.15;5.32;;;18.90;29.80;;;;;;5012148;28;20194;-58
2024/01/10 00:11:56;;;;;;;7.28;5.22;;;18.90;29.80;;;;;;5012513;28;20315;-59
2024/01/10 00:14:23;;;;;;;7.32;5.10;;;18.90;29.60;;;;;;5011632;28;20250;-57
2024/01/10 00:16:50;;;;;;;6.40;5.10;;;18.90;29.70;;;;;;5012913;28;20281;-59
2024/01/10 00:19:17;;;;;;;6.90;4.80;;;18.90;29.80;;;;;;5012317;28;20289;-59
2024/01/10 00:21:44;;;;;;;6.82;5.03;;;18.90;29.70;;;;;;5012425;28;20201;-58
2024/01/10 00:24:12;;;;;;;7.93;5.72;;;18.90;29.70;;;;;;5012186;28;20197;-58
2024/01/10 00:26:39;;;;;;;8.30;5.22;;;18.90;29.60;;;;;;5012888;28;20276;-58
2024/01/10 00:29:07;;;;;;;6.80;5.35;;;18.90;29.60;;;;;;5011823;28;20312;-58
2024/01/10 00:31:34;;;;;;;9.10;5.10;;;18.90;29.60;;;;;;5069363;28;20215;-59
2024/01/10 00:34:01;;;;;;;7.25;5.35;;;18.90;29.60;;;;;;5115805;28;20237;-59
2024/01/10 00:36:28;;;;;;;7.30;5.32;;;19.00;29.60;;;;;;5114459;28;20213;-58
2024/01/10 00:38:55;;;;;;;8.05;5.50;;;18.90;29.50;;;;;;5115729;28;20223;-59
2024/01/10 00:41:23;;;;;;;7.68;5.60;;;19.00;29.50;;;;;;5114586;28;20277;-59
2024/01/10 00:43:50;;;;;;;8.35;5.75;;;18.90;29.40;;;;;;5114800;28;20304;-59
2024/01/10 00:46:17;;;;;;;7.50;6.07;;;18.90;29.40;;;;;;5114238;28;20268;-58
2024/01/10 00:48:44;;;;;;;9.40;6.05;;;19.00;29.40;;;;;;5115319;28;20213;-57
2024/01/10 00:51:11;;;;;;;7.72;5.78;;;19.00;29.40;;;;;;5114228;28;20203;-59
2024/01/10 00:53:39;;;;;;;7.72;5.55;;;19.00;29.40;;;;;;5115059;28;20320;-59
2024/01/10 00:56:07;;;;;;;8.57;5.93;;;19.00;29.30;;;;;;5114307;28;20201;-57
2024/01/10 00:58:36;;;;;;;9.45;6.13;;;19.00;29.40;;;;;;5114501;27;20635;-58
2024/01/10 01:01:03;;;;;;;8.13;6.03;;;19.00;29.30;;;;;;5114279;28;20273;-58
2024/01/10 01:03:30;;;;;;;7.47;5.80;;;19.00;29.40;;;;;;5114911;28;20636;-57
2024/01/10 01:05:57;;;;;;;8.82;5.60;;;19.00;29.30;;;;;;5113875;28;20264;-59
2024/01/10 01:08:24;;;;;;;8.00;5.57;;;19.00;29.30;;;;;;5114987;28;20300;-59
2024/01/10 01:10:51;;;;;;;7.95;5.78;;;19.00;29.30;;;;;;5113757;28;20260;-58
2024/01/10 01:13:18;;;;;;;7.82;5.35;;;19.00;29.20;;;;;;5114194;28;20215;-58
2024/01/10 01:15:46;;;;;;;7.30;5.78;;;19.00;29.20;;;;;;5114091;28;20316;-57
2024/01/10 01:18:13;;;;;;;6.68;5.20;;;19.00;29.20;;;;;;5114323;28;20213;-59
2024/01/10 01:20:40;;;;;;;8.63;5.82;;;19.00;29.20;;;;;;5113228;28;20725;-58
2024/01/10 01:23:07;;;;;;;7.93;5.78;;;19.00;29.30;;;;;;5114655;28;20296;-59
2024/01/10 01:25:34;;;;;;;8.00;5.50;;;19.00;29.60;;;;;;5114669;28;20315;-59
2024/01/10 01:28:01;;;;;;;7.32;5.47;;;19.00;29.20;;;;;;5080967;28;20220;-58
2024/01/10 01:30:28;;;;;;;7.22;5.47;;;19.00;29.10;;;;;;5011049;28;20221;-59
2024/01/10 01:32:56;;;;;;;8.00;5.53;;;19.00;29.10;;;;;;5011555;28;20656;-58
2024/01/10 01:35:23;;;;;;;9.00;5.97;;;19.10;29.10;;;;;;5010644;28;20228;-58
2024/01/10 01:37:51;;;;;;;8.18;5.47;;;19.10;29.10;;;;;;5011340;28;20705;-59
2024/01/10 01:40:19;;;;;;;7.85;5.90;;;19.10;29.00;;;;;;5010990;28;20193;-59
2024/01/10 01:42:47;;;;;;;8.52;5.78;;;19.10;29.50;;;;;;5011048;28;20219;-59
2024/01/10 01:45:14;;;;;;;7.35;5.43;;;19.10;29.10;;;;;;5010971;28;20185;-59
2024/01/10 01:47:40;;;;;;;8.10;5.70;;;19.10;29.00;;;;;;5011187;28;20302;-59
2024/01/10 01:50:09;;;;;;;7.88;5.20;;;19.10;29.00;;;;;;5010551;28;20246;-58
2024/01/10 01:52:37;;;;;;;7.47;5.40;;;19.10;29.00;;;;;;5011051;28;20236;-59
2024/01/10 01:55:07;;;;;;;7.32;5.45;;;19.10;29.00;;;;;;5010096;28;20221;-57
2024/01/10 01:57:34;;;;;;;7.97;5.35;;;19.10;29.00;;;;;;5011299;28;20218;-59
2024/01/10 02:00:02;;;;;;;8.68;5.25;;;19.10;28.80;;;;;;5010292;28;20277;-59
2024/01/10 02:02:31;;;;;;;8.45;6.00;;;19.10;28.90;;;;;;5010917;28;20222;-58
2024/01/10 02:04:59;;;;;;;6.57;5.25;;;19.10;28.80;;;;;;5010345;28;20190;-58
2024/01/10 02:07:28;;;;;;;9.13;6.15;;;19.10;28.90;;;;;;5009161;28;20221;-59
2024/01/10 02:09:55;;;;;;;8.38;6.03;;;19.10;28.60;;;;;;4992729;28;20208;-58
2024/01/10 02:12:22;;;;;;;8.55;6.05;;;19.10;28.80;;;;;;5002815;28;20315;-59
2024/01/10 02:14:49;;;;;;;8.98;5.60;;;19.10;28.70;;;;;;5010662;28;20316;-59
2024/01/10 02:17:16;;;;;;;6.47;5.20;;;19.10;28.70;;;;;;5011060;28;20272;-59
2024/01/10 02:19:43;;;;;;;8.30;5.82;;;19.10;28.70;;;;;;5010409;28;20285;-58
2024/01/10 02:22:11;;;;;;;7.38;5.68;;;19.10;28.60;;;;;;5010294;28;20654;-58
2024/01/10 02:24:39;;;;;;;8.38;6.07;;;19.10;28.70;;;;;;5010242;28;20202;-58
2024/01/10 02:27:08;;;;;;;7.30;5.18;;;19.10;28.60;;;;;;5010670;28;20292;-58
2024/01/10 02:29:35;;;;;;;8.05;5.82;;;19.10;28.60;;;;;;5010038;28;20281;-58
2024/01/10 02:32:03;;;;;;;8.05;5.88;;;19.10;28.60;;;;;;5053213;28;20189;-59
2024/01/10 02:34:31;;;;;;;7.25;5.65;;;19.10;28.60;;;;;;5113082;28;20224;-59
2024/01/10 02:36:57;;;;;;;7.18;5.47;;;19.20;28.60;;;;;;5112184;28;20197;-58
2024/01/10 02:39:24;;;;;;;7.45;5.90;;;19.10;28.50;;;;;;5113190;28;20189;-58
2024/01/10 02:41:51;;;;;;;9.05;6.18;;;19.10;28.50;;;;;;5112277;28;20284;-59
2024/01/10 02:44:19;;;;;;;7.03;5.10;;;19.10;28.60;;;;;;5112739;28;20269;-58
2024/01/10 02:46:46;;;;;;;7.78;6.13;;;19.10;28.40;;;;;;5112303;28;20276;-58
2024/01/10 02:49:13;;;;;;;7.75;5.75;;;19.20;28.60;;;;;;5112646;28;20217;-58
2024/01/10 02:51:41;;;;;;;8.27;5.85;;;19.10;28.30;;;;;;5111812;28;20185;-59
2024/01/10 02:54:07;;;;;;;9.50;6.20;;;19.20;28.30;;;;;;5112558;28;20296;-58
2024/01/10 02:56:34;;;;;;;7.72;5.50;;;19.20;28.50;;;;;;5112026;28;20284;-56
2024/01/10 02:59:01;;;;;;;8.15;6.07;;;19.20;28.30;;;;;;5112590;28;20656;-58
2024/01/10 03:01:29;;;;;;;7.85;5.60;;;19.20;28.30;;;;;;5111791;28;20189;-59
2024/01/10 03:03:57;;;;;;;8.70;5.93;;;19.10;28.20;;;;;;5113009;28;20300;-58
2024/01/10 03:06:24;;;;;;;8.95;5.72;;;19.20;28.40;;;;;;5111114;28;20665;-58
2024/01/10 03:08:51;;;;;;;7.97;5.68;;;19.20;28.30;;;;;;5112586;28;20563;-58
2024/01/10 03:11:18;;;;;;;8.00;6.20;;;19.20;28.30;;;;;;5111603;28;20229;-58
2024/01/10 03:13:46;;;;;;;8.57;6.07;;;19.20;28.30;;;;;;5112598;28;20215;-59
2024/01/10 03:16:13;;;;;;;8.75;6.13;;;19.10;28.20;;;;;;5112686;28;20209;-58
2024/01/10 03:18:42;;;;;;;8.30;5.70;;;19.20;28.30;;;;;;5111575;28;20220;-59
2024/01/10 03:21:09;;;;;;;7.68;5.47;;;19.20;28.30;;;;;;5112485;28;20273;-58
2024/01/10 03:23:36;;;;;;;7.93;5.93;;;19.20;28.30;;;;;;5111703;28;20302;-59
2024/01/10 03:26:03;;;;;;;8.25;5.55;;;19.20;28.80;;;;;;5112522;28;20186;-59
2024/01/10 03:28:30;;;;;;;8.48;5.90;;;19.20;28.20;;;;;;5057636;28;20304;-59
2024/01/10 03:30:57;;;;;;;8.55;5.95;;;19.20;28.10;;;;;;5009605;28;20250;-59
2024/01/10 03:33:24;;;;;;;8.30;6.07;;;19.20;28.10;;;;;;5010124;28;20299;-59
2024/01/10 03:35:52;;;;;;;8.18;5.97;;;19.20;28.20;;;;;;5008691;28;20603;-57
2024/01/10 03:38:19;;;;;;;7.45;5.78;;;19.30;28.20;;;;;;5009884;28;20213;-59
2024/01/10 03:40:46;;;;;;;8.73;5.38;;;19.20;28.10;;;;;;5009359;28;20194;-59
2024/01/10 03:43:13;;;;;;;9.38;6.47;;;19.20;28.10;;;;;;5009737;28;20214;-60
2024/01/10 03:45:40;;;;;;;9.57;6.47;;;19.20;28.10;;;;;;5009396;28;20189;-58
2024/01/10 03:48:08;;;;;;;7.63;5.75;;;19.20;28.60;;;;;;5009729;28;20221;-59
2024/01/10 03:50:35;;;;;;;9.93;5.82;;;19.20;28.10;;;;;;5008946;28;20189;-59
2024/01/10 03:53:04;;;;;;;7.68;5.57;;;19.20;28.00;;;;;;5009806;28;20277;-58
2024/01/10 03:55:30;;;;;;;7.82;5.63;;;19.30;28.20;;;;;;5009272;28;20221;-58
2024/01/10 03:57:57;;;;;;;7.60;5.38;;;19.20;28.00;;;;;;5009019;28;20590;-57
2024/01/10 04:00:25;;;;;;;9.02;5.93;;;19.30;28.10;;;;;;5008692;28;20625;-58
2024/01/10 04:02:53;;;;;;;7.95;5.70;;;19.30;28.10;;;;;;5009931;28;20221;-59
2024/01/10 04:05:20;;;;;;;7.30;5.78;;;19.30;28.10;;;;;;5008486;28;20654;-58
2024/01/10 04:07:47;;;;;;;9.00;5.43;;;19.30;28.10;;;;;;5009496;28;20243;-59
2024/01/10 04:10:15;;;;;;;7.38;5.68;;;19.30;28.10;;;;;;5008695;28;20198;-57
2024/01/10 04:12:42;;;;;;;7.35;5.80;;;19.30;28.00;;;;;;5008702;28;20265;-58
2024/01/10 04:15:10;;;;;;;8.80;6.32;;;19.30;28.00;;;;;;5009013;28;20229;-59
2024/01/10 04:17:37;;;;;;;8.38;5.93;;;19.30;28.00;;;;;;5009619;28;20236;-58
2024/01/10 04:20:05;;;;;;;10.25;6.03;;;19.30;28.00;;;;;;5011303;28;20660;-58
2024/01/10 04:22:32;;;;;;;7.50;5.50;;;19.30;28.10;;;;;;5012693;28;20300;-59
2024/01/10 04:25:00;;;;;;;7.10;5.30;;;19.30;28.00;;;;;;5011867;28;20198;-59
2024/01/10 04:27:28;;;;;;;7.82;5.68;;;19.30;28.00;;;;;;5012369;28;20268;-58
2024/01/10 04:29:55;;;;;;;8.18;5.70;;;19.40;28.10;;;;;;5011914;28;20190;-58
2024/01/10 04:32:22;;;;;;;9.20;6.28;;;19.30;27.90;;;;;;5034762;28;20207;-59
2024/01/10 04:34:49;;;;;;;8.43;6.03;;;19.40;28.00;;;;;;5115201;28;20219;-58
2024/01/10 04:37:17;;;;;;;9.63;6.00;;;19.30;27.90;;;;;;5114651;28;20189;-58
2024/01/10 04:39:43;;;;;;;8.98;5.82;;;19.30;27.90;;;;;;5115492;28;20192;-59
2024/01/10 04:42:11;;;;;;;9.32;6.50;;;19.30;27.90;;;;;;5114346;28;20192;-59
2024/01/10 04:44:40;;;;;;;7.93;5.95;;;19.30;27.90;;;;;;5115044;28;20188;-59
2024/01/10 04:47:08;;;;;;;9.65;6.28;;;19.30;27.90;;;;;;5114587;28;20277;-59
2024/01/10 04:49:34;;;;;;;8.15;5.85;;;19.30;27.80;;;;;;5114928;28;20296;-56
2024/01/10 04:52:02;;;;;;;8.35;5.53;;;19.40;27.90;;;;;;5114492;28;20268;-58
2024/01/10 04:54:29;;;;;;;7.50;5.57;;;19.40;27.90;;;;;;5115415;28;20248;-58
2024/01/10 04:56:56;;;;;;;8.45;6.05;;;19.40;27.90;;;;;;5114845;28;20637;-59
2024/01/10 04:59:23;;;;;;;9.55;5.90;;;19.40;27.80;;;;;;5114190;28;20231;-59
2024/01/10 05:01:51;;;;;;;9.73;5.93;;;19.40;27.90;;;;;;5114878;28;20288;-59
2024/01/10 05:04:18;;;;;;;7.85;5.70;;;19.40;27.80;;;;;;5114105;28;20221;-58
2024/01/10 05:06:45;;;;;;;7.10;5.80;;;19.40;27.80;;;;;;5114964;28;20273;-59
2024/01/10 05:09:12;;;;;;;8.60;6.07;;;19.40;27.80;;;;;;5114296;28;20227;-60
2024/01/10 05:11:39;;;;;;;7.05;5.38;;;19.40;27.90;;;;;;5114175;28;20225;-58
2024/01/10 05:14:06;;;;;;;8.90;6.20;;;19.40;27.80;;;;;;5113792;28;20758;-58
2024/01/10 05:16:33;;;;;;;7.47;5.60;;;19.50;27.90;;;;;;5114648;28;20305;-60
2024/01/10 05:19:03;;;;;;;8.23;5.40;;;19.40;27.80;;;;;;5113615;28;20610;-58
2024/01/10 05:21:31;;;;;;;7.47;5.75;;;19.50;27.80;;;;;;5114617;28;20189;-58
2024/01/10 05:23:58;;;;;;;8.73;5.70;;;19.50;27.80;;;;;;5113758;28;20219;-58
2024/01/10 05:26:25;;;;;;;7.53;5.72;;;19.50;27.80;;;;;;5114179;28;20292;-59
2024/01/10 05:28:51;;;;;;;9.35;5.80;;;19.50;27.80;;;;;;5044428;28;20627;-59
2024/01/10 05:31:18;;;;;;;7.03;5.22;;;19.50;27.80;;;;;;5011173;28;20189;-58
2024/01/10 05:33:45;;;;;;;7.85;5.88;;;19.50;27.80;;;;;;5011204;28;20296;-59
2024/01/10 05:36:14;;;;;;;7.03;5.43;;;19.40;27.70;;;;;;5011571;28;20245;-58
2024/01/10 05:38:41;;;;;;;7.63;5.65;;;19.50;27.80;;;;;;5011132;28;20235;-59
2024/01/10 05:41:08;;;;;;;7.00;5.40;;;19.40;27.80;;;;;;5011447;28;20235;-59
2024/01/10 05:43:35;;;;;;;7.38;5.63;;;19.40;27.70;;;;;;5011061;28;20300;-58
2024/01/10 05:46:04;;;;;;;9.77;5.85;;;19.50;27.80;;;;;;5011585;28;20190;-59
2024/01/10 05:48:31;;;;;;;8.75;5.63;;;19.50;27.80;;;;;;5010583;28;20227;-58
2024/01/10 05:50:58;;;;;;;7.47;5.65;;;19.50;27.70;;;;;;5011213;28;20642;-59
2024/01/10 05:53:27;;;;;;;6.90;5.60;;;19.50;27.80;;;;;;5011001;28;20286;-58
2024/01/10 05:55:54;;;;;;;6.90;5.70;;;19.50;27.60;;;;;;5011125;28;20205;-58
2024/01/10 05:58:21;;;;;;;7.38;5.70;;;19.50;27.70;;;;;;5010753;28;20304;-59
2024/01/10 06:00:48;;;;;;;10.95;5.85;;;19.50;27.70;;;;;;5011092;28;20200;-59
2024/01/10 06:03:15;;;;;;;7.63;5.60;;;19.50;27.60;;;;;;5010495;28;20213;-59
2024/01/10 06:05:42;;;;;;;8.82;5.72;;;19.60;27.80;;;;;;5010876;28;20228;-56
2024/01/10 06:08:09;;;;;;;7.85;5.72;;;19.50;27.70;;;;;;5010722;28;20217;-58
2024/01/10 06:10:37;;;;;;;7.75;5.70;;;19.60;27.70;;;;;;5010182;28;20590;-58
2024/01/10 06:13:04;;;;;;;7.07;5.28;;;19.60;27.70;;;;;;5010272;28;20726;-57
2024/01/10 06:15:31;;;;;;;8.27;5.90;;;19.50;27.60;;;;;;5010635;28;20698;-58
2024/01/10 06:17:58;;;;;;;7.90;5.22;;;19.60;27.70;;;;;;5010812;28;20308;-59
2024/01/10 06:20:25;;;;;;;8.18;5.38;;;19.60;27.80;;;;;;5010318;28;20197;-59
2024/01/10 06:22:52;;;;;;;7.88;5.60;;;19.60;27.70;;;;;;5009958;28;20665;-59
2024/01/10 06:25:19;;;;;;;7.50;5.55;;;19.60;27.60;;;;;;5009614;28;20277;-58
2024/01/10 06:27:47;;;;;;;8.10;5.75;;;19.60;27.60;;;;;;5010335;28;20218;-59
2024/01/10 06:30:14;;;;;;;6.97;5.47;;;19.60;27.70;;;;;;5010178;28;20280;-58
2024/01/10 06:32:41;;;;;;;7.82;5.93;;;19.60;27.60;;;;;;5094145;28;20214;-60
2024/01/10 06:35:09;;;;;;;8.20;5.93;;;19.60;27.70;;;;;;5113100;28;20264;-60
2024/01/10 06:37:36;;;;;;;8.93;6.03;;;19.60;27.60;;;;;;5112247;28;20189;-58
2024/01/10 06:40:05;;;;;;;7.93;5.80;;;19.60;27.50;;;;;;5112983;28;20189;-58
2024/01/10 06:42:33;;;;;;;7.30;5.53;;;19.60;27.60;;;;;;5111741;28;20220;-58
2024/01/10 06:45:01;;;;;;;6.72;5.60;;;19.60;27.70;;;;;;5113212;28;20189;-59
2024/01/10 06:47:28;;;;;;;9.38;5.95;;;19.60;27.70;;;;;;5111826;28;20197;-59
2024/01/10 06:49:55;;;;;;;8.70;5.70;;;19.60;27.70;;;;;;5112896;28;20274;-59
2024/01/10 06:52:22;;;;;;;8.43;5.90;;;19.60;27.60;;;;;;5111742;28;20185;-59
2024/01/10 06:54:49;;;;;;;6.70;5.47;;;19.60;27.60;;;;;;5112624;28;20268;-60
2024/01/10 06:57:16;;;;;;;7.55;5.47;;;19.70;27.70;;;;;;5111975;28;20209;-58
2024/01/10 06:59:44;;;;;;;8.77;6.07;;;19.60;27.50;;;;;;5112665;28;20214;-59
2024/01/10 07:02:12;;;;;;;9.55;6.15;;;19.60;27.60;;;;;;5111764;28;20191;-59
2024/01/10 07:04:39;;;;;;;7.13;5.43;;;19.60;27.60;;;;;;5112702;28;20698;-58
2024/01/10 07:07:08;;;;;;;7.80;5.72;;;19.70;27.60;;;;;;5112023;28;20185;-59
2024/01/10 07:09:35;;;;;;;9.32;5.90;;;19.60;27.60;;;;;;5112452;28;20213;-58
2024/01/10 07:12:04;;;;;;;8.18;5.85;;;19.60;27.60;;;;;;5111530;28;20304;-58
2024/01/10 07:14:31;;;;;;;8.95;5.95;;;19.60;27.50;;;;;;5112827;28;20222;-58
2024/01/10 07:16:57;;;;;;;9.88;5.97;;;19.70;28.20;;;;;;5111462;28;20217;-59
2024/01/10 07:19:26;;;;;;;8.07;6.00;;;19.70;27.70;;;;;;5112816;28;20254;-59
2024/01/10 07:21:54;;;;;;;8.35;5.93;;;19.70;27.70;;;;;;5111832;28;20272;-60
2024/01/10 07:24:21;;;;;;;8.65;6.30;;;19.70;27.70;;;;;;5112457;28;20224;-57
2024/01/10 07:26:48;;;;;;;9.00;6.22;;;19.70;27.60;;;;;;5111530;28;20185;-58
2024/01/10 07:29:14;;;;;;;8.10;5.55;;;19.70;28.20;;;;;;5026875;28;20313;-58
2024/01/10 07:31:41;;;;;;;8.82;6.30;;;19.70;27.60;;;;;;5009660;28;20288;-59
2024/01/10 07:34:08;;;;;;;7.25;5.28;;;19.70;27.60;;;;;;5009668;28;20308;-58
2024/01/10 07:36:42;;;;;;;8.85;5.53;;;19.70;28.20;;;;;;5009548;28;20220;-58
2024/01/10 07:39:09;;;;;;;9.18;5.63;;;19.70;27.60;;;;;;5009066;28;20648;-59
2024/01/10 07:41:36;;;;;;;7.70;5.75;;;19.70;27.60;;;;;;5009789;28;20231;-59
2024/01/10 07:44:03;;;;;;;8.20;6.25;;;19.70;27.60;;;;;;5009366;28;20221;-59
2024/01/10 07:46:30;;;;;;;7.90;5.55;;;19.70;27.60;;;;;;5009277;28;20221;-59
2024/01/10 07:48:57;;;;;;;8.90;5.95;;;19.70;28.10;;;;;;5008944;28;20610;-59
2024/01/10 07:51:24;;;;;;;7.57;5.78;;;19.70;27.50;;;;;;5009713;28;20197;-59
2024/01/10 07:53:52;;;;;;;7.93;5.75;;;19.70;27.60;;;;;;4998179;28;20257;-58
2024/01/10 07:56:19;;;;;;;8.13;5.57;;;19.70;27.50;;;;;;4999938;28;20229;-59
2024/01/10 07:58:46;;;;;;;9.23;6.50;;;19.80;27.70;;;;;;5009482;28;20232;-59
2024/01/10 08:01:13;;;;;;;7.95;5.72;;;19.70;27.70;;;;;;5009511;28;20281;-58
2024/01/10 08:03:40;;;;;;;13.52;6.20;;;19.70;27.80;;;;;;5006767;28;20217;-59
2024/01/10 08:06:08;;;;;;;8.05;5.40;;;19.70;27.80;;;;;;5008668;28;20285;-59
2024/01/10 08:08:35;;;;;;;8.07;6.10;;;19.70;27.80;;;;;;5003212;28;20341;-57
2024/01/10 08:11:03;;;;;;;8.38;5.78;;;19.80;27.80;;;;;;5009352;28;20312;-57
2024/01/10 08:13:30;;;;;;;9.45;5.80;;;19.80;27.80;;;;;;5010495;28;20219;-58
2024/01/10 08:15:57;;;;;;;8.50;6.15;;;19.80;27.80;;;;;;5008561;28;20308;-57
2024/01/10 08:18:24;;;;;;;8.27;6.10;;;19.80;27.80;;;;;;5009663;28;20308;-56
2024/01/10 08:20:51;;;;;;;8.68;6.15;;;19.90;28.00;;;;;;5009416;28;20258;-59
2024/01/10 08:23:21;;;;;;;7.40;5.53;;;19.90;28.00;;;;;;5000263;28;20220;-54
2024/01/10 08:25:53;;;;;;;7.80;5.60;;;19.90;28.40;;;;;;5027327;28;20694;-57
2024/01/10 08:28:31;;;;;;;10.13;5.82;;;19.90;28.50;;;;;;5016353;28;20245;-58
2024/01/10 08:31:00;;;;;;;14.40;6.57;;;19.90;28.50;;;;;;5070131;28;20236;-59
2024/01/10 08:33:54;;;;;;;8.98;5.50;;;19.90;28.50;;;;;;5059511;28;20225;-59
2024/01/10 08:36:24;;;;;;;10.52;6.07;;;20.00;28.60;;;;;;5010137;28;20227;-59
2024/01/10 08:38:54;;;;;;;19.75;6.78;;;20.00;28.70;;;;;;5093701;28;20220;-59
2024/01/10 08:41:23;;;;;;;8.88;5.90;;;20.00;28.80;;;;;;5040103;28;20190;-58
2024/01/10 08:44:08;;;;;;;11.10;6.20;;;20.00;28.80;;;;;;5043589;28;20245;-60
2024/01/10 08:46:44;;;;;;;13.75;6.18;;;20.10;28.80;;;;;;5058474;28;20839;-57
2024/01/10 08:49:13;;;;;;;11.35;6.07;;;20.10;28.80;;;;;;5006460;28;20232;-58
2024/01/10 08:51:43;;;;;;;9.05;5.22;;;20.20;28.80;;;;;;5040627;28;20725;-59
2024/01/10 08:54:28;;;;;;;8.15;5.22;;;20.30;28.90;;;;;;5016263;28;20246;-58
2024/01/10 08:57:00;;;;;;;12.48;5.95;;;20.30;29.00;;;;;;5066255;28;20256;-59
2024/01/10 08:59:35;;;;;;;7.97;5.68;;;20.30;29.00;;;;;;5044428;28;20216;-58
2024/01/10 09:02:05;;;;;;;8.55;5.70;;;20.40;29.20;;;;;;5055603;28;20193;-59
2024/01/10 09:04:38;;;;;;;15.93;5.40;;;20.40;29.10;;;;;;5092981;28;20214;-58
2024/01/10 09:07:11;;;;;;;12.80;5.53;;;20.40;29.10;;;;;;5040133;28;20670;-56
2024/01/10 09:09:42;;;;;;;11.25;5.57;;;20.40;29.10;;;;;;5002714;28;20252;-59
2024/01/10 09:12:10;;;;;;;8.93;5.57;;;20.50;29.20;;;;;;5075348;28;20567;-56
2024/01/10 09:14:50;;;;;;;8.73;5.38;;;20.50;29.20;;;;;;4996527;28;20232;-59
2024/01/10 09:17:19;;;;;;;10.15;5.05;;;20.50;29.20;;;;;;5053891;28;20320;-59
2024/01/10 09:19:55;;;;;;;21.40;5.30;;;20.50;29.20;;;;;;5083733;28;20218;-59
2024/01/10 09:22:26;;;;;;;8.63;5.50;;;20.50;29.90;;;;;;5057192;28;20216;-59
2024/01/10 09:24:55;;;;;;;8.45;5.70;;;20.50;29.50;;;;;;5023242;28;20258;-57
2024/01/10 09:27:23;;;;;;;10.95;5.47;;;20.60;29.40;;;;;;5058606;28;20654;-58
2024/01/10 09:29:55;;;;;;;10.77;5.80;;;20.60;29.50;;;;;;5027714;28;20305;-57
2024/01/10 09:32:23;;;;;;;7.72;5.25;;;20.50;29.40;;;;;;5060277;28;20193;-59
2024/01/10 09:35:01;;;;;;;14.40;5.35;;;20.60;29.40;;;;;;5013626;28;20248;-57
2024/01/10 09:37:33;;;;;;;7.95;5.30;;;20.60;29.40;;;;;;5046937;28;20270;-56
2024/01/10 09:40:03;;;;;;;9.32;5.57;;;20.60;29.40;;;;;;5064802;28;20229;-58
2024/01/10 09:42:40;;;;;;;11.75;5.43;;;20.60;29.40;;;;;;5050887;28;20272;-59
2024/01/10 09:45:18;;;;;;;10.98;5.57;;;20.60;29.50;;;;;;4991171;28;20706;-57
2024/01/10 09:48:03;;;;;;;8.32;5.72;;;20.60;29.70;;;;;;5053974;28;20268;-58
2024/01/10 09:50:34;;;;;;;11.20;5.72;;;20.70;29.80;;;;;;5053017;28;20235;-58
2024/01/10 09:53:07;;;;;;;10.77;5.78;;;20.70;29.90;;;;;;5012270;28;20234;-58
2024/01/10 09:55:40;;;;;;;10.13;5.25;;;20.70;30.00;;;;;;5051904;28;20218;-59
2024/01/10 09:58:10;;;;;;;10.98;5.28;;;20.70;30.00;;;;;;5075027;28;20257;-59
2024/01/10 10:00:43;;;;;;;8.90;5.18;;;20.70;30.00;;;;;;5088955;28;20258;-59
2024/01/10 10:03:22;;;;;;;9.32;5.38;;;20.70;30.00;;;;;;4987584;28;20287;-58
2024/01/10 10:05:54;;;;;;;12.75;5.05;;;20.80;30.30;;;;;;4994881;28;20594;-55
2024/01/10 10:08:27;;;;;;;9.73;5.28;;;20.80;30.60;;;;;;4977082;28;20570;-59
2024/01/10 10:10:55;;;;;;;11.63;4.97;;;20.80;30.70;;;;;;5011608;28;20351;-58
2024/01/10 10:13:28;;;;;;;18.08;5.30;;;20.80;30.50;;;;;;4982198;28;20746;-57
2024/01/10 10:16:06;;;;;;;10.18;5.10;;;20.90;30.80;;;;;;5055543;28;20252;-59
2024/01/10 10:18:34;;;;;;;11.00;5.10;;;20.80;30.90;;;;;;5045024;28;20244;-59
2024/01/10 10:21:16;;;;;;;10.75;4.75;;;20.90;31.00;;;;;;5072105;28;20229;-58
2024/01/10 10:24:01;;;;;;;14.18;4.53;;;20.90;31.00;;;;;;5065177;28;20186;-59
2024/01/10 10:29:21;;;;;;;11.32;4.88;;;20.90;30.80;;;;;;5058578;28;20190;-59
2024/01/10 10:31:54;;;;;;;11.18;5.70;;;20.90;30.60;;;;;;5002444;28;20762;-59
2024/01/10 10:34:26;;;;;;;8.93;5.10;;;20.90;30.50;;;;;;5034533;28;20238;-58
2024/01/10 10:36:55;;;;;;;10.18;4.60;;;20.90;30.40;;;;;;5067521;28;20229;-59
2024/01/10 10:39:26;;;;;;;15.00;5.18;;;20.90;30.10;;;;;;5033082;28;20195;-58
2024/01/10 10:41:59;;;;;;;8.15;5.07;;;20.90;30.00;;;;;;5035204;28;20236;-59
2024/01/10 10:44:30;;;;;;;10.75;5.75;;;20.80;29.90;;;;;;5034130;28;20205;-58
2024/01/10 10:47:09;;;;;;;7.90;4.85;;;20.70;29.70;;;;;;5039869;28;20298;-59
2024/01/10 10:49:43;;;;;;;11.85;6.10;;;20.60;29.50;;;;;;5067200;28;20318;-61
2024/01/10 10:52:14;;;;;;;10.48;5.20;;;20.60;29.40;;;;;;5035639;28;20209;-59
2024/01/10 10:54:55;;;;;;;14.30;5.60;;;20.50;29.30;;;;;;5015385;28;20398;-58
2024/01/10 10:57:23;;;;;;;11.43;5.70;;;20.50;29.10;;;;;;4987417;28;20737;-59
2024/01/10 10:59:51;;;;;;;9.68;5.18;;;20.40;29.10;;;;;;5065939;28;20191;-59
2024/01/10 11:02:23;;;;;;;16.00;5.18;;;20.40;29.10;;;;;;5067339;28;20187;-59
2024/01/10 11:04:51;;;;;;;8.00;5.75;;;20.30;29.30;;;;;;5066518;28;20841;-59
2024/01/10 11:07:19;;;;;;;6.40;4.82;;;20.30;29.30;;;;;;5031899;28;20200;-55
2024/01/10 11:09:48;;;;;;;7.70;5.03;;;20.30;29.20;;;;;;5007851;28;20640;-59
2024/01/10 11:12:28;;;;;;;10.35;5.20;;;20.30;29.20;;;;;;5034379;28;20315;-59
2024/01/10 11:15:10;;;;;;;8.65;5.50;;;20.30;29.10;;;;;;5030492;28;20283;-59
2024/01/10 11:17:58;;;;;;;16.65;5.30;;;20.30;29.00;;;;;;5020922;28;20329;-56
2024/01/10 11:20:49;;;;;;;10.50;4.82;;;20.30;29.00;;;;;;5013864;28;20244;-59
2024/01/10 11:23:51;;;;;;;8.90;4.85;;;20.20;28.80;;;;;;5017644;28;20849;-57
2024/01/10 11:26:24;;;;;;;7.72;4.80;;;20.20;28.80;;;;;;5020032;28;20217;-57
2024/01/10 11:28:53;;;;;;;9.63;4.68;;;20.20;28.90;;;;;;4998462;28;20201;-54
2024/01/10 11:31:32;;;;;;;11.98;5.32;;;20.10;28.80;;;;;;4987870;28;20229;-56
2024/01/10 11:34:13;;;;;;;9.88;4.88;;;20.10;29.20;;;;;;5056422;28;20295;-58
2024/01/10 11:37:18;;;;;;;10.73;5.13;;;20.10;28.60;;;;;;4986177;28;20220;-57
2024/01/10 11:39:50;;;;;;;9.32;5.88;;;20.10;28.60;;;;;;5032232;28;20233;-53
2024/01/10 11:42:33;;;;;;;8.52;5.28;;;20.10;28.60;;;;;;5023439;28;20202;-59
2024/01/10 11:45:06;;;;;;;11.50;5.95;;;20.10;28.60;;;;;;5050819;28;20675;-59
2024/01/10 11:47:36;;;;;;;8.18;5.55;;;20.10;28.60;;;;;;5053923;28;20228;-56
2024/01/10 11:50:23;;;;;;;8.27;5.90;;;20.10;28.60;;;;;;5059055;28;20223;-57
2024/01/10 11:53:01;;;;;;;8.07;5.72;;;20.10;28.50;;;;;;4991906;28;20202;-56
2024/01/10 11:55:54;;;;;;;10.02;5.68;;;20.10;28.40;;;;;;5025673;28;20615;-56
2024/01/10 11:58:25;;;;;;;12.68;5.60;;;20.10;28.50;;;;;;5039713;28;20306;-59
2024/01/10 12:01:01;;;;;;;7.65;5.43;;;20.10;28.50;;;;;;5000753;28;20198;-57
2024/01/10 12:03:31;;;;;;;8.45;5.43;;;20.10;28.50;;;;;;5036366;28;20212;-54
2024/01/10 12:06:01;;;;;;;9.05;5.13;;;20.10;28.40;;;;;;5019501;28;20219;-57
2024/01/10 12:08:28;;;;;;;11.23;5.65;;;20.10;28.50;;;;;;5010305;28;20573;-57
2024/01/10 12:11:01;;;;;;;10.20;5.65;;;20.10;28.40;;;;;;5065814;28;20718;-59
2024/01/10 12:13:32;;;;;;;12.25;5.75;;;20.10;28.40;;;;;;5025060;28;20280;-57
2024/01/10 12:16:00;;;;;;;9.35;5.97;;;20.10;28.40;;;;;;4991030;28;20200;-57
2024/01/10 12:21:17;;;;;;;12.13;5.20;;;20.10;28.30;;;;;;5011243;28;20186;-56
2024/01/10 12:23:49;;;;;;;8.77;5.50;;;20.10;28.30;;;;;;4991700;28;20204;-59
2024/01/10 12:26:16;;;;;;;9.07;5.55;;;20.20;28.40;;;;;;4998224;28;20655;-57
2024/01/10 12:28:55;;;;;;;8.82;5.57;;;20.10;28.30;;;;;;5009803;28;20225;-59
2024/01/10 12:31:25;;;;;;;10.80;5.55;;;20.10;28.30;;;;;;5023663;28;20228;-58
2024/01/10 12:33:57;;;;;;;8.43;5.63;;;20.10;28.30;;;;;;5057291;28;20640;-58
2024/01/10 12:36:42;;;;;;;8.43;5.10;;;20.20;28.30;;;;;;5023632;28;20238;-59
2024/01/10 12:39:16;;;;;;;6.75;5.07;;;20.10;28.20;;;;;;5044885;27;20260;-59
2024/01/10 12:41:50;;;;;;;8.60;5.20;;;20.20;28.20;;;;;;5017457;28;20766;-59
2024/01/10 12:44:18;;;;;;;7.53;5.50;;;20.20;28.20;;;;;;5022266;28;20233;-59
2024/01/10 12:46:53;;;;;;;9.95;5.30;;;20.20;28.30;;;;;;5039443;28;20216;-58
2024/01/10 12:49:23;;;;;;;8.18;5.68;;;20.20;28.30;;;;;;4965173;28;20227;-56
2024/01/10 12:51:56;;;;;;;8.18;5.43;;;20.20;28.20;;;;;;5021291;28;20310;-58
2024/01/10 12:54:25;;;;;;;11.80;5.43;;;20.20;28.20;;;;;;5088046;28;20253;-56
2024/01/10 12:56:58;;;;;;;6.90;5.10;;;20.20;28.40;;;;;;5031425;28;20275;-58
2024/01/10 12:59:28;;;;;;;12.00;6.22;;;20.20;28.80;;;;;;5014034;28;20232;-59
2024/01/10 13:02:02;;;;;;;10.35;5.40;;;20.20;28.40;;;;;;5017207;28;20302;-57
2024/01/10 13:04:37;;;;;;;8.88;5.53;;;20.30;28.60;;;;;;5023154;28;20229;-56